Terminal Aerodrome Forecast
Issued by NWS

Home | Current Version | Previous Version | Text Only | Print | Product List | Glossary On
Versions: 1 2 3 4 5 6 7 8 9 10 11 12 13 14 15 16 17 18 19
000
FTUS45 KBOI 062121 AAA
TAFTWF
TAF AMD
KTWF 062121Z 0621/0718 06015G25KT P6SM VCSH FEW080 SCT120
     FM062300 VRB20G35KT P6SM -TSRA BKN050CB OVC080
     FM070400 04010KT P6SM -SHRA OVC060
     FM071200 10006KT P6SM SCT080 BKN130=

USA.gov is the U.S. government's official web portal to all federal, state and local government web resources and services.